Sacramento, CA (94273)

10:54 PM PDT on August 30, 2014 (GMT -0700)
MIDTOWN | Change Station
CLOSE
Current Station
Personal Weather Station
Location: SACRAMENTO, CA
Elevation: 24 ft
Nearby Weather Stations

Elev 24 ft 38.57 °N, 121.48 °W | Updated 28 seconds ago

Clear
Clear
69.6 °F
Feels Like 69.6 °F
N
1.8
Wind Variable Wind from SSW
Gusts 2.5 mph

Today
High -- | Low -- °F
--% Chance of Precip.
Yesterday
High -- | Low -- °F
Precip. -- in
6:33 AM 7:38 PM
Waxing Crescent, 28% visible
Pressure 29.78 in
Visibility 10.0 miles
Clouds Clear
Dew Point 55 °F
Humidity 60%
Rainfall 0.00 in
Snow Depth Not available.
UV 0.0 out of 12
Pollen 9.20 out of 12
Ozone Good
PM2.5 Good
Flu Activity Not available.
METAR KSAC 310453Z AUTO 18004KT 10SM CLR 23/12 A2978 RMK AO2 SLP083 T02330117

More Conditions Fewer Conditions

Pressure 29.78 in
Visibility 10.0 miles
Clouds Clear
Dew Point 55 °F
Humidity 60%
Rainfall 0.00 in
Snow Depth Not available.
UV 0.0 out of 12
Pollen 9.20 out of 12
Ozone Good
PM2.5 Good
Flu Activity Not available.
METAR KSAC 310453Z AUTO 18004KT 10SM CLR 23/12 A2978 RMK AO2 SLP083 T02330117

More Conditions Fewer Conditions

10-Day Weather Forecast

Almanac

Astronomy

Aug. 30, 2014 Rise Set
Actual Time 6:33 AM PDT 7:38 PM PDT
Civil Twilight 6:06 AM PDT 8:06 PM PDT
Nautical Twilight 5:33 AM PDT 8:38 PM PDT
Astronomical Twilight 4:59 AM PDT 9:12 PM PDT
Moon 11:22 AM PDT (8/30) 10:20 PM PDT (8/30)
Length of Visible Light 13h 59m
Length of Day
13h 05m
Tomorrow will be 2m 24s shorter.
Waxing Crescent, 28% of the Moon is Illuminated
Aug 31
Waxing Crescent
Sep 2
First Quarter
Sep 8
Full
Sep 15
Last Quarter
Sep 24
New

Yesterday's Extremes

State Highs State Lows

Community

WunderPhotos

Upload Photos

1,748,790 photos uploaded!

Nearby

Air Quality

  Air Quality AQ Index Pollutant
Yesterday Good
OZONE
Yesterday Good
PM10
Current Good
PM2.5
Current Good
OZONE
Saturday Moderate
OZONE
Sunday Moderate
OZONE
Monday Moderate
OZONE
Tuesday Moderate
OZONE
Wednesday Moderate
OZONE
Thursday Moderate
OZONE

Snow Depth

Station Depth Elevation
Squaw Valley 0 in 8200 ft
Rubicon #2 0 in 7500 ft
Echo Peak 1 in 7800 ft
CSS Lab 2 in 6900 ft
Tahoe City Cross 0 in 6750 ft

Earthquake Activity

City Distance Mag. Time & Date
Gonzales, California 135 miles 2.7 9:48 PM PDT
2014-08-30
Ridgemark, California 131 miles 3.4 4:32 PM PDT
2014-08-29
The Geysers, California 73 miles 2.7 2:53 PM PDT
2014-08-29
Ridgemark, California 131 miles 3.0 2:44 PM PDT
2014-08-29
Minimum magnitude displayed is 2.5.

Coastal Water Temperatures

Place Temperature
No Stations Reporting

Nearby Weather Stations